Time;durP1;ratioP1;P1;durP2;ratioP2;P2;SDS_P1;SDS_P2;PMS_P1;PMS_P2;Temp;Humidity;BMP_temperature;BMP_pressure;BME280_temperature;BME280_humidity;BME280_pressure;Samples;Min_cycle;Max_cycle;Signal;HPM_P1;HPM_P2
2022/10/07 00:01:27;;;;;;;;;11.50;10.25;;;;;12.85;60.95;102542.69;5141150;27;45415;-80
2022/10/07 00:03:53;;;;;;;;;11.00;10.75;;;;;12.84;61.57;102544.44;5121777;27;63121;-80
2022/10/07 00:06:20;;;;;;;;;12.00;10.00;;;;;12.81;61.73;102541.84;5139970;27;74394;-79
2022/10/07 00:08:48;;;;;;;;;13.00;9.00;;;;;12.76;61.86;102530.59;5140590;27;45411;-80
2022/10/07 00:11:25;;;;;;;;;12.75;10.00;;;;;12.73;61.78;102528.84;5122757;27;45347;-80
2022/10/07 00:13:53;;;;;;;;;16.00;12.75;;;;;12.68;61.40;102530.63;5122498;27;45615;-80
2022/10/07 00:16:25;;;;;;;;;12.50;8.50;;;;;12.65;62.13;102529.78;5122391;27;46213;-80
2022/10/07 00:18:51;;;;;;;;;19.00;13.50;;;;;12.62;62.34;102522.00;5140308;27;45474;-80
2022/10/07 00:21:18;;;;;;;;;14.00;10.25;;;;;12.59;61.58;102525.50;5140822;27;45502;-80
2022/10/07 00:23:45;;;;;;;;;13.25;9.75;;;;;12.55;61.91;102519.44;5140270;27;45372;-80
2022/10/07 00:26:12;;;;;;;;;17.50;12.00;;;;;12.52;61.99;102518.63;5140699;27;45386;-80
2022/10/07 00:28:38;;;;;;;;;15.50;11.75;;;;;12.48;62.02;102523.00;5122019;27;45874;-80
2022/10/07 00:31:07;;;;;;;;;12.75;10.50;;;;;12.46;62.23;102522.16;5122270;27;45487;-80
2022/10/07 00:33:35;;;;;;;;;11.50;11.50;;;;;12.42;62.25;102520.41;5125809;27;45355;-80
2022/10/07 00:36:00;;;;;;;;;17.75;12.00;;;;;12.39;62.40;102517.84;5140585;27;45426;-80
2022/10/07 00:38:26;;;;;;;;;14.00;9.00;;;;;12.36;62.39;102513.50;5121379;27;45448;-80
2022/10/07 00:40:51;;;;;;;;;16.25;11.25;;;;;12.34;62.72;102515.25;5120984;27;68887;-80
2022/10/07 00:43:23;;;;;;;;;11.00;11.00;;;;;12.33;62.57;102516.16;5138792;27;65537;-80
2022/10/07 00:45:48;;;;;;;;;12.25;9.25;;;;;12.32;62.65;102511.78;5140265;27;47558;-80
2022/10/07 00:48:18;;;;;;;;;9.50;8.25;;;;;12.29;62.80;102511.81;5104537;27;45745;-80
2022/10/07 00:50:46;;;;;;;;;13.50;8.50;;;;;12.30;62.55;102507.47;5122250;27;45442;-80
2022/10/07 00:53:11;;;;;;;;;13.75;11.00;;;;;12.29;62.46;102510.94;5140253;27;45357;-80
2022/10/07 00:55:37;;;;;;;;;13.50;8.75;;;;;12.26;63.02;102506.63;5140156;27;46391;-80
2022/10/07 00:58:08;;;;;;;;;15.00;8.25;;;;;12.25;62.80;102511.88;5120923;27;62638;-80
2022/10/07 01:00:33;;;;;;;;;13.00;8.50;;;;;12.19;62.47;102497.97;5121489;27;45339;-80
2022/10/07 01:02:59;;;;;;;;;15.50;9.50;;;;;12.16;62.73;102497.97;5140121;27;45395;-80
2022/10/07 01:05:24;;;;;;;;;8.00;7.00;;;;;12.13;63.01;102489.34;5121531;27;47067;-81
2022/10/07 01:07:50;;;;;;;;;10.75;8.00;;;;;12.12;62.63;102498.03;5138976;27;63997;-80
2022/10/07 01:10:18;;;;;;;;;11.00;8.75;;;;;12.10;62.64;102492.81;5121707;27;45365;-80
2022/10/07 01:13:05;;;;;;;;;7.50;7.00;;;;;12.08;62.98;102491.09;5121382;27;45575;-78
2022/10/07 01:15:53;;;;;;;;;13.75;9.00;;;;;12.05;63.09;102489.38;5139724;27;46175;-81
2022/10/07 01:18:25;;;;;;;;;8.00;7.00;;;;;12.03;63.21;102480.69;5131039;27;45466;-80
2022/10/07 01:21:25;;;;;;;;;9.25;8.00;;;;;12.00;62.89;102476.34;5118709;27;45413;-81
2022/10/07 01:23:51;;;;;;;;;9.75;8.75;;;;;11.98;63.22;102477.25;5115994;27;45575;-80
2022/10/07 01:26:29;;;;;;;;;4.00;2.25;;;;;11.96;62.84;102472.03;5118687;27;46402;-81
2022/10/07 01:29:02;;;;;;;;;11.50;8.00;;;;;11.95;63.44;102469.44;5119020;27;45403;-80
2022/10/07 01:31:32;;;;;;;;;9.00;8.75;;;;;11.93;63.16;102473.81;5100888;27;45365;-80
2022/10/07 01:33:59;;;;;;;;;9.50;7.50;;;;;11.90;63.07;102466.84;5111352;27;45491;-80
2022/10/07 01:36:25;;;;;;;;;12.75;7.00;;;;;11.90;63.49;102469.47;5119547;27;76032;-80
2022/10/07 01:38:55;;;;;;;;;13.00;9.25;;;;;11.87;63.88;102463.34;5121196;27;45416;-80
2022/10/07 01:41:22;;;;;;;;;11.25;6.00;;;;;11.84;63.38;102458.19;5121268;27;45424;-80
2022/10/07 01:43:51;;;;;;;;;9.00;8.00;;;;;11.82;63.46;102450.34;5139563;27;45390;-80
2022/10/07 01:46:21;;;;;;;;;9.00;9.00;;;;;11.80;63.30;102454.72;5120903;27;46197;-81
2022/10/07 01:48:47;;;;;;;;;6.25;6.25;;;;;11.76;63.56;102450.41;5120679;27;45382;-80
2022/10/07 01:51:13;;;;;;;;;11.25;8.00;;;;;11.73;63.44;102443.44;5120345;27;45313;-80
2022/10/07 01:54:01;;;;;;;;;10.50;6.75;;;;;11.72;63.23;102443.47;5120999;27;45555;-79
2022/10/07 01:56:47;;;;;;;;;11.00;7.00;;;;;11.69;63.51;102443.50;5120811;27;46554;-80
2022/10/07 01:59:15;;;;;;;;;11.25;9.00;;;;;11.67;63.53;102440.03;5139346;27;45426;-80
2022/10/07 02:01:46;;;;;;;;;12.50;9.50;;;;;11.62;63.96;102437.44;5139456;27;45462;-80
2022/10/07 02:04:33;;;;;;;;;15.75;7.75;;;;;11.59;64.00;102434.88;5138828;27;45471;-80
2022/10/07 02:07:30;;;;;;;;;13.50;7.75;;;;;11.57;63.86;102431.38;5138975;27;46122;-80
2022/10/07 02:10:18;;;;;;;;;10.25;6.75;;;;;11.53;64.34;102420.09;5120653;27;46164;-80
2022/10/07 02:13:11;;;;;;;;;8.50;8.50;;;;;11.52;64.41;102413.16;5120342;27;45417;-80
2022/10/07 02:16:05;;;;;;;;;8.75;6.50;;;;;11.54;64.30;102410.56;5120689;27;45406;-80
2022/10/07 02:18:33;;;;;;;;;11.00;9.75;;;;;11.53;64.53;102406.19;5119856;27;46218;-80
2022/10/07 02:21:00;;;;;;;;;8.25;8.00;;;;;11.51;64.02;102407.94;5138584;27;45468;-80
2022/10/07 02:23:27;;;;;;;;;19.25;9.25;;;;;11.47;64.26;102403.63;5120505;27;45364;-80
2022/10/07 02:25:53;;;;;;;;;11.25;9.75;;;;;11.43;64.08;102400.19;5138872;27;45493;-80
2022/10/07 02:28:21;;;;;;;;;11.00;11.00;;;;;11.40;64.40;102401.06;5119667;27;53139;-80
2022/10/07 02:30:52;;;;;;;;;9.25;8.00;;;;;11.39;64.29;102395.88;5120222;27;46048;-80
2022/10/07 02:33:18;;;;;;;;;10.75;5.00;;;;;11.38;64.25;102396.72;5120179;27;45363;-80
2022/10/07 02:35:56;;;;;;;;;10.50;8.75;;;;;11.37;64.52;102392.41;5120422;27;45564;-80
2022/10/07 02:38:22;;;;;;;;;11.00;8.00;;;;;11.35;64.21;102383.72;5120175;27;45541;-80
2022/10/07 02:40:58;;;;;;;;;12.25;10.50;;;;;11.32;64.22;102386.34;5119169;27;65735;-80
2022/10/07 02:43:30;;;;;;;;;12.50;10.75;;;;;11.31;64.23;102384.59;5120198;27;45387;-80
2022/10/07 02:46:15;;;;;;;;;11.25;8.00;;;;;11.27;64.21;102381.13;5120048;27;45552;-80
2022/10/07 02:48:47;;;;;;;;;14.50;10.50;;;;;11.24;64.52;102379.44;5119551;27;46293;-80
2022/10/07 02:51:18;;;;;;;;;10.50;8.25;;;;;11.20;64.61;102374.25;5119927;27;45429;-80
2022/10/07 02:53:45;;;;;;;;;12.50;10.00;;;;;11.18;64.54;102368.16;5119898;27;45411;-80
2022/10/07 02:56:11;;;;;;;;;15.50;7.50;;;;;11.16;64.53;102370.78;5119791;27;45392;-80
2022/10/07 02:58:37;;;;;;;;;10.50;7.75;;;;;11.16;65.04;102370.78;5137169;27;75451;-80
2022/10/07 03:01:04;;;;;;;;;6.00;6.00;;;;;11.15;64.49;102366.44;5119705;27;45741;-80
2022/10/07 03:03:30;;;;;;;;;6.25;6.25;;;;;11.14;64.41;102366.44;5137065;27;61380;-80
2022/10/07 03:05:56;;;;;;;;;11.00;7.00;;;;;11.11;64.72;102356.06;5137364;27;68268;-80
2022/10/07 03:08:22;;;;;;;;;7.50;6.50;;;;;11.09;64.32;102363.00;5119423;27;45985;-80
2022/10/07 03:10:47;;;;;;;;;11.00;8.00;;;;;11.06;64.91;102363.88;5101451;27;68647;-80
2022/10/07 03:13:14;;;;;;;;;10.75;6.00;;;;;11.02;64.81;102368.25;5138088;27;45322;-80
2022/10/07 03:15:40;;;;;;;;;8.50;7.00;;;;;11.00;65.00;102363.91;5119792;27;45429;-80
2022/10/07 03:18:06;;;;;;;;;8.50;7.00;;;;;10.98;64.97;102358.72;5136981;27;47051;-80
2022/10/07 03:20:31;;;;;;;;;7.75;6.50;;;;;10.98;65.27;102352.66;5119319;27;45517;-80
2022/10/07 03:23:00;;;;;;;;;7.00;7.00;;;;;10.97;65.13;102349.16;5137286;27;61367;-80
2022/10/07 03:25:26;;;;;;;;;6.50;6.25;;;;;10.95;64.85;102355.25;5137131;27;45382;-80
2022/10/07 03:27:53;;;;;;;;;8.50;7.00;;;;;10.95;65.33;102350.91;5137443;27;54798;-80
2022/10/07 03:30:21;;;;;;;;;10.00;8.00;;;;;10.93;65.11;102343.97;5137752;27;45849;-80
2022/10/07 03:32:47;;;;;;;;;11.75;10.00;;;;;10.91;65.06;102337.91;5137313;27;45359;-80
2022/10/07 03:35:12;;;;;;;;;10.50;7.00;;;;;10.89;65.07;102335.31;5119356;27;45498;-80
2022/10/07 03:37:37;;;;;;;;;11.50;7.50;;;;;10.86;65.58;102335.31;5136589;27;73536;-80
2022/10/07 03:40:03;;;;;;;;;10.50;6.50;;;;;10.85;65.67;102329.25;5136686;27;68410;-80
2022/10/07 03:42:28;;;;;;;;;9.00;8.50;;;;;10.84;65.50;102330.09;5137730;27;45356;-80
2022/10/07 03:44:54;;;;;;;;;5.50;5.00;;;;;10.85;65.67;102333.59;5137343;27;45366;-79
2022/10/07 03:47:20;;;;;;;;;7.00;6.25;;;;;10.84;65.42;102337.91;5137542;27;46194;-80
2022/10/07 03:49:45;;;;;;;;;12.00;6.75;;;;;10.82;65.56;102329.25;5137515;27;45938;-81
2022/10/07 03:52:11;;;;;;;;;11.00;7.00;;;;;10.80;65.64;102330.13;5118919;27;45403;-80
2022/10/07 03:54:36;;;;;;;;;11.00;7.25;;;;;10.79;65.41;102333.59;5137552;27;45437;-80
2022/10/07 03:57:02;;;;;;;;;14.25;8.50;;;;;10.75;65.43;102335.34;5136832;27;61893;-80
2022/10/07 03:59:27;;;;;;;;;13.00;7.00;;;;;10.71;65.40;102336.25;5118270;27;45396;-80
2022/10/07 04:01:53;;;;;;;;;8.50;7.00;;;;;10.69;65.96;102332.78;5119156;27;45378;-80
2022/10/07 04:04:19;;;;;;;;;8.00;6.00;;;;;10.68;65.68;102332.78;5136617;27;57283;-80
2022/10/07 04:06:44;;;;;;;;;10.50;7.25;;;;;10.67;65.34;102326.72;5118811;27;46425;-80
2022/10/07 04:09:13;;;;;;;;;10.00;7.50;;;;;10.64;65.32;102322.41;5137246;27;45419;-80
2022/10/07 04:11:40;;;;;;;;;11.00;8.00;;;;;10.63;65.47;102330.22;5137327;27;45466;-80
2022/10/07 04:14:06;;;;;;;;;12.50;6.75;;;;;10.59;66.15;102326.75;5136958;27;45409;-80
2022/10/07 04:16:32;;;;;;;;;10.75;7.75;;;;;10.58;65.99;102322.41;5118567;27;46215;-80
2022/10/07 04:18:58;;;;;;;;;15.00;8.00;;;;;10.58;65.84;102321.53;5118552;27;45514;-80
2022/10/07 04:21:23;;;;;;;;;13.25;8.50;;;;;10.57;66.08;102317.22;5118040;27;57672;-80
2022/10/07 04:23:48;;;;;;;;;6.50;6.50;;;;;10.54;66.09;102318.09;5117697;27;66809;-80
2022/10/07 04:26:14;;;;;;;;;16.00;8.00;;;;;10.52;66.00;102318.97;5137044;27;46146;-80
2022/10/07 04:28:39;;;;;;;;;9.25;7.00;;;;;10.50;65.78;102321.56;5136540;27;45363;-80
2022/10/07 04:31:07;;;;;;;;;11.25;9.25;;;;;10.50;65.90;102318.13;5137058;27;45484;-80
2022/10/07 04:33:33;;;;;;;;;9.50;5.50;;;;;10.50;65.91;102323.31;5129547;27;45529;-80
2022/10/07 04:36:03;;;;;;;;;9.25;6.25;;;;;10.47;65.96;102321.56;5099843;27;45392;-80
2022/10/07 04:38:31;;;;;;;;;12.50;6.50;;;;;10.44;66.21;102325.06;5119638;27;45342;-80
2022/10/07 04:40:56;;;;;;;;;8.25;7.50;;;;;10.42;66.23;102328.56;5119823;27;45348;-80
2022/10/07 04:43:22;;;;;;;;;5.50;5.50;;;;;10.40;66.41;102320.75;5101059;27;45424;-80
2022/10/07 04:45:52;;;;;;;;;10.00;6.00;;;;;10.39;65.92;102307.72;5119579;27;46217;-80
2022/10/07 04:48:21;;;;;;;;;7.25;7.25;;;;;10.39;66.32;102312.94;5100826;27;45403;-80
2022/10/07 04:50:47;;;;;;;;;10.50;7.00;;;;;10.37;66.28;102307.72;5101275;27;45269;-79
2022/10/07 04:53:15;;;;;;;;;8.25;6.00;;;;;10.35;66.09;102316.41;5119570;27;45480;-79
2022/10/07 04:55:43;;;;;;;;;11.50;6.00;;;;;10.32;66.35;102306.88;5119401;27;46265;-80
2022/10/07 04:58:08;;;;;;;;;14.25;7.50;;;;;10.30;66.43;102307.72;5118987;27;45357;-80
2022/10/07 05:00:34;;;;;;;;;11.00;7.00;;;;;10.29;66.49;102304.25;5119531;27;45328;-80
2022/10/07 05:03:00;;;;;;;;;6.75;5.50;;;;;10.26;66.72;102299.91;5119398;27;45464;-80
2022/10/07 05:05:26;;;;;;;;;10.25;8.25;;;;;10.27;66.30;102304.25;5100929;27;46384;-80
2022/10/07 05:07:52;;;;;;;;;11.00;9.50;;;;;10.28;66.48;102302.50;5119511;27;45797;-80
2022/10/07 05:10:18;;;;;;;;;10.75;7.75;;;;;10.26;66.34;102302.50;5100985;27;45380;-79
2022/10/07 05:12:43;;;;;;;;;6.25;6.00;;;;;10.24;66.73;102298.19;5119036;27;45502;-79
2022/10/07 05:15:09;;;;;;;;;6.00;6.00;;;;;10.22;66.66;102299.94;5100348;27;55278;-80
2022/10/07 05:17:35;;;;;;;;;10.00;7.00;;;;;10.20;66.56;102299.06;5118982;27;45431;-80
2022/10/07 05:20:01;;;;;;;;;6.00;5.00;;;;;10.18;66.57;102304.28;5100343;27;46127;-80
2022/10/07 05:22:26;;;;;;;;;12.50;11.00;;;;;10.15;66.67;102300.81;5119183;27;45549;-80
2022/10/07 05:24:51;;;;;;;;;10.00;10.00;;;;;10.13;66.78;102298.22;5100258;27;55547;-80
2022/10/07 05:27:17;;;;;;;;;10.25;9.50;;;;;10.11;66.97;102302.56;5099011;27;72503;-80
2022/10/07 05:29:42;;;;;;;;;15.00;9.50;;;;;10.10;66.99;102303.41;5119082;27;45703;-80
2022/10/07 05:32:07;;;;;;;;;11.50;9.75;;;;;10.09;67.16;102301.69;5118155;27;63884;-80
2022/10/07 05:34:32;;;;;;;;;12.25;7.00;;;;;10.10;66.68;102297.34;5133780;27;74304;-80
2022/10/07 05:36:58;;;;;;;;;7.50;7.50;;;;;10.08;66.76;102295.63;5121168;27;45442;-80
2022/10/07 05:39:23;;;;;;;;;9.75;7.50;;;;;10.05;66.97;102298.22;5139622;27;45437;-80
2022/10/07 05:41:49;;;;;;;;;10.50;7.75;;;;;10.03;66.59;102293.91;5139323;27;45449;-80
2022/10/07 05:44:14;;;;;;;;;9.75;7.50;;;;;10.01;67.11;102293.00;5139057;27;53759;-79
2022/10/07 05:46:40;;;;;;;;;10.25;8.25;;;;;9.99;67.21;102298.25;5138877;27;45289;-79
2022/10/07 05:49:06;;;;;;;;;9.00;8.75;;;;;9.98;67.06;102293.03;5139622;27;45371;-80
2022/10/07 05:51:31;;;;;;;;;10.50;9.50;;;;;9.97;67.15;102288.69;5138418;27;70161;-80
2022/10/07 05:53:57;;;;;;;;;15.25;11.00;;;;;9.98;66.96;102298.25;5139264;27;46347;-80
2022/10/07 05:56:22;;;;;;;;;12.00;9.25;;;;;9.97;67.21;102293.91;5139019;27;45394;-80
2022/10/07 05:58:49;;;;;;;;;11.25;10.50;;;;;9.98;67.40;102293.91;5139301;27;45427;-80
2022/10/07 06:01:17;;;;;;;;;11.00;9.00;;;;;9.97;66.83;102296.50;5120878;27;45457;-80
2022/10/07 06:03:47;;;;;;;;;12.25;9.25;;;;;9.95;67.30;102291.28;5120435;27;46658;-79
2022/10/07 06:06:12;;;;;;;;;13.25;12.50;;;;;9.94;66.99;102294.78;5139286;27;45455;-80
2022/10/07 06:08:37;;;;;;;;;10.75;10.00;;;;;9.94;67.22;102291.31;5120681;27;45409;-80
2022/10/07 06:13:49;;;;;;;;;13.25;10.50;;;;;9.95;67.57;102291.28;5139023;27;45351;-80
2022/10/07 06:16:15;;;;;;;;;9.50;9.25;;;;;9.95;67.92;102291.28;5139052;27;45871;-80
2022/10/07 06:18:40;;;;;;;;;11.75;10.00;;;;;9.95;67.28;102293.91;5120492;27;45403;-80
2022/10/07 06:21:06;;;;;;;;;9.75;9.00;;;;;9.96;67.77;102293.03;5138869;27;45472;-79
2022/10/07 06:23:32;;;;;;;;;15.00;10.00;;;;;9.96;67.24;102286.97;5120336;27;45987;-80
2022/10/07 06:25:59;;;;;;;;;14.25;11.25;;;;;9.97;67.45;102286.94;5138557;27;45354;-80
2022/10/07 06:28:25;;;;;;;;;13.25;9.25;;;;;9.99;67.75;102292.16;5120368;27;45483;-80
2022/10/07 06:30:50;;;;;;;;;15.25;11.50;;;;;9.99;67.60;102285.25;5139066;27;45458;-80
2022/10/07 06:33:16;;;;;;;;;15.00;11.75;;;;;10.01;67.95;102283.50;5138544;27;45528;-80
2022/10/07 06:35:43;;;;;;;;;7.50;7.50;;;;;10.03;67.77;102289.56;5120367;27;45483;-80
2022/10/07 06:38:08;;;;;;;;;13.00;12.50;;;;;10.04;67.26;102287.81;5138792;27;45430;-80
2022/10/07 06:40:33;;;;;;;;;16.50;13.50;;;;;10.05;67.84;102290.44;5137433;27;68718;-80
2022/10/07 06:42:59;;;;;;;;;14.00;12.50;;;;;10.07;67.72;102291.28;5119973;27;45339;-81
2022/10/07 06:45:24;;;;;;;;;15.75;11.75;;;;;10.11;67.83;102294.75;5137550;27;72894;-81
2022/10/07 06:47:51;;;;;;;;;15.00;10.75;;;;;10.12;68.09;102288.66;5138137;27;53681;-80
2022/10/07 06:50:16;;;;;;;;;18.00;13.75;;;;;10.15;67.78;102287.81;5138609;27;45496;-80
2022/10/07 06:52:42;;;;;;;;;18.25;12.50;;;;;10.18;68.18;102290.41;5138456;27;45397;-80
2022/10/07 06:55:08;;;;;;;;;21.00;14.50;;;;;10.20;68.45;102281.72;5138102;27;45643;-80
2022/10/07 06:57:33;;;;;;;;;12.00;12.00;;;;;10.22;68.47;102289.53;5138552;27;45397;-80
2022/10/07 07:00:00;;;;;;;;;12.50;10.50;;;;;10.24;68.12;102298.19;5136609;27;60566;-78
2022/10/07 07:02:26;;;;;;;;;12.25;11.50;;;;;10.25;68.38;102298.19;5138106;27;46286;-79
2022/10/07 07:04:51;;;;;;;;;15.25;15.25;;;;;10.27;67.95;102290.38;5138164;27;45386;-79
2022/10/07 07:07:16;;;;;;;;;17.00;16.75;;;;;10.29;68.23;102288.66;5119805;27;45352;-79
2022/10/07 07:09:42;;;;;;;;;18.50;14.25;;;;;10.31;68.21;102292.13;5137241;27;59889;-79
2022/10/07 07:12:07;;;;;;;;;22.50;17.50;;;;;10.35;68.05;102295.59;5118250;27;74072;-79
2022/10/07 07:14:34;;;;;;;;;23.00;14.75;;;;;10.40;68.44;102296.41;5136928;27;69044;-78
2022/10/07 07:17:00;;;;;;;;;17.00;16.25;;;;;10.46;68.48;102292.06;5138055;27;45420;-79
2022/10/07 07:19:25;;;;;;;;;19.00;17.50;;;;;10.54;68.70;102299.00;5118325;27;58493;-78
2022/10/07 07:21:50;;;;;;;;;23.50;19.50;;;;;10.59;68.65;102292.91;5137066;27;67071;-78
2022/10/07 07:24:16;;;;;;;;;17.25;11.00;;;;;10.67;67.90;102290.25;5136583;27;67476;-79
2022/10/07 07:26:41;;;;;;;;;20.75;15.50;;;;;10.74;68.18;102280.69;5137425;27;55880;-79
2022/10/07 07:29:07;;;;;;;;;15.75;14.50;;;;;10.80;67.77;102281.50;5137945;27;45423;-79
2022/10/07 07:31:34;;;;;;;;;15.50;15.50;;;;;10.89;68.20;102278.00;5119260;27;46102;-79
2022/10/07 07:34:02;;;;;;;;;17.25;16.25;;;;;10.95;68.17;102272.72;5137691;27;45961;-79
2022/10/07 07:36:29;;;;;;;;;18.25;16.50;;;;;11.01;68.00;102277.94;5119387;27;45462;-79
2022/10/07 07:38:57;;;;;;;;;18.75;15.00;;;;;11.07;68.13;102278.75;5137520;27;45282;-79
2022/10/07 07:41:28;;;;;;;;;19.25;14.75;;;;;11.14;68.07;102270.88;5119164;27;45486;-78
2022/10/07 07:43:56;;;;;;;;;20.00;16.75;;;;;11.19;68.14;102274.31;5119157;27;45922;-80
2022/10/07 07:46:25;;;;;;;;;20.00;14.75;;;;;11.28;67.79;102270.78;5137936;27;45509;-79
2022/10/07 07:48:52;;;;;;;;;21.50;15.75;;;;;11.37;67.38;102277.69;5137647;27;45529;-81
2022/10/07 07:51:18;;;;;;;;;24.50;19.00;;;;;11.43;67.89;102273.28;5111464;27;46355;-81
2022/10/07 07:53:44;;;;;;;;;19.75;16.00;;;;;11.47;67.62;102270.66;5115812;27;45882;-81
2022/10/07 07:56:11;;;;;;;;;21.50;15.25;;;;;11.54;67.25;102267.97;5135977;27;45407;-81
2022/10/07 07:58:37;;;;;;;;;20.75;17.75;;;;;11.63;67.28;102273.09;5117538;27;45484;-82
2022/10/07 08:01:08;;;;;;;;;23.25;18.50;;;;;11.71;67.25;102270.44;5117108;27;46290;-81
2022/10/07 08:03:37;;;;;;;;;23.25;16.50;;;;;11.78;67.28;102268.66;5135020;27;45599;-81
2022/10/07 08:06:04;;;;;;;;;19.75;18.00;;;;;11.87;67.17;102265.94;5117337;27;45362;-81
2022/10/07 08:08:30;;;;;;;;;25.75;21.25;;;;;11.95;66.95;102265.91;5135732;27;45643;-82
2022/10/07 08:10:56;;;;;;;;;21.25;20.25;;;;;11.99;66.73;102259.75;5119147;27;47076;-82
2022/10/07 08:13:23;;;;;;;;;25.25;21.00;;;;;12.04;66.64;102257.97;5139390;27;45799;-81
2022/10/07 08:15:48;;;;;;;;;23.00;21.50;;;;;12.07;66.73;102257.06;5139591;27;45410;-82
2022/10/07 08:18:16;;;;;;;;;28.75;23.25;;;;;12.09;66.87;102265.72;5112171;27;45679;-81
2022/10/07 08:20:41;;;;;;;;;29.25;22.75;;;;;12.15;66.66;102265.69;5117748;27;46350;-82
2022/10/07 08:23:06;;;;;;;;;31.25;18.50;;;;;12.24;66.87;102257.75;5117890;27;67033;-82
2022/10/07 08:25:32;;;;;;;;;23.50;18.50;;;;;12.35;66.19;102262.81;5139085;27;48184;-81
2022/10/07 08:27:57;;;;;;;;;25.75;20.00;;;;;12.45;65.96;102261.00;5139205;27;45391;-82
2022/10/07 08:30:23;;;;;;;;;27.75;18.25;;;;;12.54;66.50;102255.66;5138954;27;47194;-82
2022/10/07 08:32:49;;;;;;;;;28.00;26.00;;;;;12.59;65.63;102256.44;5120175;27;45418;-82
2022/10/07 08:35:14;;;;;;;;;26.50;22.50;;;;;12.67;65.67;102248.53;5138871;27;45512;-82
2022/10/07 08:37:39;;;;;;;;;30.00;24.75;;;;;12.74;65.88;102245.78;5120533;27;45484;-82
2022/10/07 08:40:05;;;;;;;;;26.00;22.00;;;;;12.82;65.23;102245.69;5136648;27;68742;-82
2022/10/07 08:42:37;;;;;;;;;28.00;23.00;;;;;12.90;64.85;102245.56;5120181;27;45385;-82
2022/10/07 08:45:07;;;;;;;;;28.50;23.50;;;;;12.95;65.06;102235.91;5103236;27;45479;-82
2022/10/07 08:47:39;;;;;;;;;31.50;26.25;;;;;13.02;65.36;102228.81;5120899;27;45447;-82
2022/10/07 08:50:24;;;;;;;;;32.00;23.00;;;;;13.09;64.84;102227.84;5119695;27;45563;-82
2022/10/07 08:52:58;;;;;;;;;33.00;25.00;;;;;13.18;64.57;102227.72;5138580;27;45727;-82
2022/10/07 08:55:45;;;;;;;;;26.25;23.00;;;;;13.27;64.69;102224.94;5120575;27;45470;-82
2022/10/07 08:58:26;;;;;;;;;34.25;25.50;;;;;13.38;64.06;102219.56;5120281;27;45550;-82
2022/10/07 09:01:17;;;;;;;;;30.00;23.75;;;;;13.50;63.92;102219.38;5138741;27;45489;-82
2022/10/07 09:04:07;;;;;;;;;25.75;22.75;;;;;13.62;63.84;102217.44;5129093;27;45403;-82
2022/10/07 09:06:50;;;;;;;;;30.50;23.00;;;;;13.71;63.56;102215.50;5138593;27;45533;-82
2022/10/07 09:09:23;;;;;;;;;26.25;23.25;;;;;13.82;63.33;102210.06;5120693;27;45470;-82
2022/10/07 09:11:50;;;;;;;;;30.00;24.25;;;;;13.92;63.18;102213.38;5119868;27;47363;-82
2022/10/07 09:14:18;;;;;;;;;32.00;25.00;;;;;14.01;62.57;102212.34;5119935;27;45372;-82
2022/10/07 09:16:45;;;;;;;;;27.50;21.75;;;;;14.10;62.30;102206.91;5138364;27;45529;-82
2022/10/07 09:19:17;;;;;;;;;22.50;20.25;;;;;14.18;62.10;102199.75;5103183;27;45395;-82
2022/10/07 09:21:48;;;;;;;;;25.75;18.50;;;;;14.26;62.58;102199.59;5098121;27;45440;-82
2022/10/07 09:24:16;;;;;;;;;23.50;19.00;;;;;14.33;61.94;102188.94;5117444;27;46018;-82
2022/10/07 09:26:42;;;;;;;;;28.25;24.25;;;;;14.42;61.79;102187.03;5117643;27;45688;-82
2022/10/07 09:29:09;;;;;;;;;23.75;22.00;;;;;14.50;61.54;102180.75;5099303;27;45392;-82
2022/10/07 09:31:34;;;;;;;;;24.00;19.25;;;;;14.59;61.43;102178.81;5099128;27;45430;-82
2022/10/07 09:33:59;;;;;;;;;22.25;16.75;;;;;14.66;61.01;102172.56;5116999;27;45558;-82
2022/10/07 09:36:25;;;;;;;;;8.00;7.75;;;;;14.74;60.48;102175.84;5116863;27;57626;-82
2022/10/07 09:38:52;;;;;;;;;9.00;7.00;;;;;14.85;60.51;102165.09;5116065;27;45380;-82
2022/10/07 09:41:29;;;;;;;;;4.75;3.00;;;;;14.93;59.37;102176.25;5115929;27;47028;-82
2022/10/07 09:44:14;;;;;;;;;12.25;7.50;;;;;15.05;59.43;102169.88;5115883;27;45502;-82
2022/10/07 09:46:47;;;;;;;;;7.50;3.00;;;;;15.15;59.13;102171.34;5115395;27;45424;-82
2022/10/07 09:49:28;;;;;;;;;7.00;4.75;;;;;15.27;59.25;102172.81;5117115;27;45686;-82
2022/10/07 09:52:16;;;;;;;;;8.00;3.75;;;;;15.35;58.36;102162.97;5117104;27;45463;-82
2022/10/07 09:54:44;;;;;;;;;6.00;4.50;;;;;15.45;59.03;102153.97;5115915;27;45835;-82
2022/10/07 09:57:24;;;;;;;;;5.00;2.00;;;;;15.60;58.92;102146.56;5115929;27;45370;-82
2022/10/07 09:59:50;;;;;;;;;5.00;4.00;;;;;15.70;57.61;102140.16;5117072;27;45498;-82
2022/10/07 10:02:21;;;;;;;;;4.00;2.25;;;;;15.81;57.31;102143.38;5115360;27;47279;-82
2022/10/07 10:04:46;;;;;;;;;7.00;3.75;;;;;15.91;57.00;102137.88;5115328;27;45512;-82
2022/10/07 10:07:31;;;;;;;;;6.67;3.67;;;;;15.99;56.36;102136.75;5117039;27;45468;-82
2022/10/07 10:10:02;;;;;;;;;7.25;5.00;;;;;16.12;57.13;102129.38;5115689;27;45657;-83
2022/10/07 10:12:31;;;;;;;;;3.00;3.00;;;;;16.24;56.09;102128.13;5115633;27;45404;-82
2022/10/07 10:14:58;;;;;;;;;7.00;3.00;;;;;16.32;55.42;102122.63;5115158;27;45521;-82
2022/10/07 10:17:30;;;;;;;;;8.75;4.00;;;;;16.41;55.40;102124.97;5117066;27;45572;-82
2022/10/07 10:20:22;;;;;;;;;4.00;0.50;;;;;16.51;54.26;102120.28;5137420;27;45440;-82
2022/10/07 10:22:47;;;;;;;;;8.50;3.75;;;;;16.57;53.99;102115.69;5136874;27;46820;-82
2022/10/07 10:28:05;;;;;;;;;3.00;1.00;;;;;16.86;54.11;102121.78;5121766;27;45498;-82
2022/10/07 10:30:34;;;;;;;;;4.25;2.75;;;;;16.99;52.32;102115.22;5118832;27;45429;-82
2022/10/07 10:33:18;;;;;;;;;4.00;2.75;;;;;17.17;53.11;102112.88;5117988;27;47388;-82
2022/10/07 10:35:58;;;;;;;;;4.00;2.00;;;;;17.32;52.05;102103.56;5137382;27;45512;-82
2022/10/07 10:38:28;;;;;;;;;3.75;2.00;;;;;17.45;51.21;102099.59;5101226;27;45415;-82
2022/10/07 10:41:11;;;;;;;;;5.50;3.00;;;;;17.57;52.55;102101.78;5136938;27;45444;-83
2022/10/07 10:43:53;;;;;;;;;4.00;3.00;;;;;17.73;51.51;102093.31;5118116;27;46546;-81
2022/10/07 10:46:26;;;;;;;;;4.75;3.75;;;;;17.85;50.42;102084.97;5118026;27;46029;-82
2022/10/07 10:48:59;;;;;;;;;4.00;3.00;;;;;17.98;50.87;102088.00;5129837;27;45426;-80
2022/10/07 10:51:47;;;;;;;;;6.00;3.00;;;;;18.08;49.38;102085.88;5118269;27;45474;-80
2022/10/07 10:54:39;;;;;;;;;4.50;2.00;;;;;18.22;49.75;102094.09;5116322;27;47516;-80
2022/10/07 10:57:35;;;;;;;;;4.00;2.00;;;;;18.41;48.81;102077.56;5102382;27;45472;-81
2022/10/07 11:00:12;;;;;;;;;4.25;2.00;;;;;18.57;49.00;102070.69;5115688;27;45432;-81
2022/10/07 11:02:51;;;;;;;;;5.25;1.50;;;;;18.75;47.40;102072.56;5131036;27;45372;-80
2022/10/07 11:05:24;;;;;;;;;2.00;2.00;;;;;18.97;48.51;102069.06;5107858;27;47047;-80
2022/10/07 11:07:54;;;;;;;;;3.50;1.00;;;;;19.22;47.82;102067.97;5126698;27;45520;-80
2022/10/07 11:10:52;;;;;;;;;3.75;1.50;;;;;19.58;46.67;102059.34;5114505;27;45479;-82
2022/10/07 11:13:17;;;;;;;;;68.75;49.25;;;;;21.05;48.41;102065.41;5111126;27;45486;-80
2022/10/07 11:15:55;;;;;;;;;9.25;7.00;;;;;23.86;43.77;102054.59;5130174;27;46909;-79
2022/10/07 11:18:40;;;;;;;;;7.75;5.25;;;;;26.56;39.79;102045.50;5112421;27;45828;-80
2022/10/07 11:21:11;;;;;;;;;2.25;2.00;;;;;28.45;37.53;102042.06;5121586;27;45483;-81
2022/10/07 11:23:45;;;;;;;;;3.00;2.25;;;;;29.97;28.54;102039.50;5115389;27;45569;-81
2022/10/07 11:26:13;;;;;;;;;2.50;1.00;;;;;30.99;31.62;102043.53;5120442;27;46569;-80
2022/10/07 11:28:40;;;;;;;;;5.50;2.00;;;;;32.16;28.65;102050.97;5097478;27;45558;-80
2022/10/07 11:31:36;;;;;;;;;4.00;1.00;;;;;33.42;27.04;102043.34;5112568;27;45414;-80
2022/10/07 11:34:07;;;;;;;;;1.25;1.25;;;;;34.50;27.57;102042.50;5110779;27;45489;-81